createdAt,value
2022-09-12T00:01:22.081Z,6.60
2022-09-12T00:03:55.650Z,6.10
2022-09-12T00:06:26.975Z,6.53
2022-09-12T00:08:57.335Z,6.13
2022-09-12T00:11:26.722Z,6.13
2022-09-12T00:13:57.801Z,5.47
2022-09-12T00:16:27.779Z,6.70
2022-09-12T00:18:57.912Z,6.50
2022-09-12T00:21:26.743Z,6.38
2022-09-12T00:23:55.607Z,6.53
2022-09-12T00:26:23.990Z,6.60
2022-09-12T00:28:52.768Z,6.68
2022-09-12T00:31:25.407Z,5.75
2022-09-12T00:33:54.836Z,6.82
2022-09-12T00:36:26.588Z,6.65
2022-09-12T00:38:55.919Z,6.60
2022-09-12T00:41:27.975Z,6.00
2022-09-12T00:43:58.510Z,6.28
2022-09-12T00:46:34.001Z,6.40
2022-09-12T00:49:06.988Z,6.03
2022-09-12T00:51:38.757Z,6.55
2022-09-12T00:54:11.816Z,6.07
2022-09-12T00:56:45.422Z,6.38
2022-09-12T00:59:18.168Z,6.32
2022-09-12T01:01:50.263Z,6.13
2022-09-12T01:04:20.810Z,6.15
2022-09-12T01:06:52.140Z,6.30
2022-09-12T01:09:24.423Z,6.00
2022-09-12T01:11:54.306Z,5.57
2022-09-12T01:14:22.964Z,5.30
2022-09-12T01:16:52.399Z,4.95
2022-09-12T01:19:50.896Z,4.80
2022-09-12T01:22:41.412Z,5.30
2022-09-12T01:25:16.602Z,4.75
2022-09-12T01:28:04.854Z,4.32
2022-09-12T01:30:46.574Z,4.80
2022-09-12T01:33:33.861Z,5.15
2022-09-12T01:36:22.951Z,5.38
2022-09-12T01:38:59.487Z,6.38
2022-09-12T01:41:31.360Z,6.22
2022-09-12T01:44:10.315Z,6.80
2022-09-12T01:46:46.294Z,6.80
2022-09-12T01:49:21.145Z,8.02
2022-09-12T01:51:58.431Z,8.10
2022-09-12T01:55:00.445Z,7.53
2022-09-12T01:57:33.494Z,8.65
2022-09-12T02:00:06.655Z,8.52
2022-09-12T02:02:47.445Z,8.23
2022-09-12T02:05:22.326Z,8.80
2022-09-12T02:07:54.854Z,8.02
2022-09-12T02:10:32.253Z,8.45
2022-09-12T02:13:12.323Z,8.27
2022-09-12T02:15:44.638Z,7.60
2022-09-12T02:18:18.164Z,7.90
2022-09-12T02:20:49.173Z,8.43
2022-09-12T02:23:22.981Z,8.38
2022-09-12T02:25:55.913Z,8.45
2022-09-12T02:28:28.771Z,8.07
2022-09-12T02:31:05.268Z,8.45
2022-09-12T02:33:39.965Z,8.93
2022-09-12T02:36:15.502Z,8.55
2022-09-12T02:38:47.045Z,9.82
2022-09-12T02:41:20.885Z,9.35
2022-09-12T02:43:50.454Z,10.32
2022-09-12T02:46:23.777Z,10.32
2022-09-12T02:48:52.582Z,9.98
2022-09-12T02:51:23.785Z,9.80
2022-09-12T02:53:52.650Z,10.00
2022-09-12T02:56:28.634Z,10.65
2022-09-12T02:58:59.994Z,10.18
2022-09-12T03:01:41.517Z,9.40
2022-09-12T03:04:29.664Z,10.02
2022-09-12T03:07:14.937Z,13.25
2022-09-12T03:09:48.394Z,14.30
2022-09-12T03:15:27.504Z,14.75
2022-09-12T03:18:09.676Z,15.68
2022-09-12T03:20:51.362Z,15.55
2022-09-12T03:23:27.424Z,15.60
2022-09-12T03:26:00.569Z,14.50
2022-09-12T03:28:32.388Z,17.58
2022-09-12T03:31:00.776Z,17.48
2022-09-12T03:33:29.065Z,15.18
2022-09-12T03:35:58.000Z,13.50
2022-09-12T03:38:26.547Z,12.68
2022-09-12T03:40:56.049Z,12.50
2022-09-12T03:43:24.373Z,10.75
2022-09-12T03:45:56.361Z,10.70
2022-09-12T03:48:25.799Z,11.07
2022-09-12T03:50:54.582Z,10.90
2022-09-12T03:53:22.912Z,10.48
2022-09-12T03:55:52.961Z,10.95
2022-09-12T03:58:32.164Z,12.77
2022-09-12T04:01:07.472Z,10.95
2022-09-12T04:03:35.802Z,20.60
2022-09-12T04:06:04.220Z,9.57
2022-09-12T04:08:32.459Z,12.93
2022-09-12T04:11:05.167Z,10.48
2022-09-12T04:13:33.501Z,9.90
2022-09-12T04:16:04.615Z,9.65
2022-09-12T04:18:33.180Z,10.80
2022-09-12T04:21:05.759Z,10.82
2022-09-12T04:23:34.875Z,10.90
2022-09-12T04:26:06.578Z,10.95
2022-09-12T04:28:38.638Z,10.70
2022-09-12T04:31:12.010Z,10.48
2022-09-12T04:33:41.301Z,9.60
2022-09-12T04:36:11.652Z,9.95
2022-09-12T04:38:40.233Z,10.15
2022-09-12T04:41:15.665Z,10.10
2022-09-12T04:43:46.554Z,9.98
2022-09-12T04:46:19.893Z,9.48
2022-09-12T04:48:52.294Z,20.80
2022-09-12T04:51:27.929Z,18.90
2022-09-12T04:53:58.433Z,8.82
2022-09-12T04:56:27.432Z,10.02
2022-09-12T04:59:00.806Z,8.90
2022-09-12T05:04:00.474Z,9.85
2022-09-12T05:06:30.175Z,8.85
2022-09-12T05:08:59.176Z,9.07
2022-09-12T05:11:46.924Z,8.15
2022-09-12T05:14:18.340Z,8.85
2022-09-12T05:16:49.628Z,9.15
2022-09-12T05:19:18.531Z,9.10
2022-09-12T05:21:46.938Z,8.18
2022-09-12T05:24:15.384Z,7.80
2022-09-12T05:26:44.005Z,8.82
2022-09-12T05:29:13.320Z,9.20
2022-09-12T05:31:42.135Z,8.57
2022-09-12T05:34:12.796Z,8.63
2022-09-12T05:36:41.655Z,9.13
2022-09-12T05:39:10.362Z,9.20
2022-09-12T05:41:38.666Z,9.40
2022-09-12T05:44:10.148Z,9.40
2022-09-12T05:46:39.866Z,9.90
2022-09-12T05:49:14.798Z,9.20
2022-09-12T05:51:44.971Z,9.40
2022-09-12T05:54:15.559Z,9.50
2022-09-12T05:56:45.839Z,8.85
2022-09-12T05:59:16.925Z,9.35
2022-09-12T06:01:45.749Z,8.70
2022-09-12T06:04:15.966Z,8.65
2022-09-12T06:06:46.075Z,8.73
2022-09-12T06:09:15.723Z,8.10
2022-09-12T06:11:44.277Z,8.48
2022-09-12T06:14:15.382Z,8.02
2022-09-12T06:16:46.355Z,8.05
2022-09-12T06:19:18.346Z,7.70
2022-09-12T06:21:48.106Z,8.07
2022-09-12T06:24:16.775Z,8.32
2022-09-12T06:26:45.529Z,8.02
2022-09-12T06:29:14.132Z,8.82
2022-09-12T06:31:55.506Z,8.45
2022-09-12T06:34:32.472Z,8.60
2022-09-12T06:37:09.620Z,9.18
2022-09-12T06:39:38.505Z,7.78
2022-09-12T06:42:07.228Z,8.45
2022-09-12T06:44:36.316Z,8.50
2022-09-12T06:47:05.252Z,7.80
2022-09-12T06:49:35.637Z,8.40
2022-09-12T06:52:04.142Z,7.72
2022-09-12T06:54:32.652Z,7.68
2022-09-12T06:57:00.832Z,7.20
2022-09-12T06:59:29.297Z,8.23
2022-09-12T07:01:57.602Z,7.65
2022-09-12T07:04:25.879Z,6.70
2022-09-12T07:06:55.530Z,6.53
2022-09-12T07:09:23.767Z,6.72
2022-09-12T07:11:52.070Z,6.65
2022-09-12T07:14:20.448Z,7.68
2022-09-12T07:16:48.972Z,7.07
2022-09-12T07:19:18.858Z,5.97
2022-09-12T07:21:47.174Z,5.68
2022-09-12T07:24:17.041Z,5.95
